Time;durP1;ratioP1;P1;durP2;ratioP2;P2;SDS_P1;SDS_P2;PMS_P1;PMS_P2;Temp;Humidity;BMP_temperature;BMP_pressure;BME280_temperature;BME280_humidity;BME280_pressure;Samples;Min_cycle;Max_cycle;Signal;HPM_P1;HPM_P2
2021/12/30 00:00:50;;;;;;;0.93;0.93;;;;;;;12.88;72.67;101125.44;5085781;28;20036;-82
2021/12/30 00:03:17;;;;;;;0.35;0.35;;;;;;;12.91;72.89;101130.69;5086494;28;20498;-84
2021/12/30 00:05:43;;;;;;;1.05;1.05;;;;;;;13.03;72.66;101117.97;5086221;28;20089;-85
2021/12/30 00:08:10;;;;;;;0.65;0.65;;;;;;;13.09;72.59;101109.84;5087066;28;20025;-85
2021/12/30 00:10:37;;;;;;;0.10;0.10;;;;;;;13.15;72.76;101119.47;5091829;28;20744;-85
2021/12/30 00:13:04;;;;;;;0.10;0.10;;;;;;;13.25;72.00;101116.50;5081726;28;20123;-82
2021/12/30 00:15:30;;;;;;;1.65;1.55;;;;;;;13.33;72.35;101118.09;5076099;28;20043;-84
2021/12/30 00:17:57;;;;;;;0.10;0.10;;;;;;;13.37;72.03;101109.09;5074905;28;20047;-84
2021/12/30 00:20:24;;;;;;;0.10;0.10;;;;;;;13.40;72.13;101101.94;5073401;28;20032;-84
2021/12/30 00:22:50;;;;;;;0.30;0.30;;;;;;;13.48;72.05;101099.03;5074176;28;20415;-84
2021/12/30 00:25:17;;;;;;;0.20;0.20;;;;;;;13.48;71.98;101112.34;5072193;28;20050;-83
2021/12/30 00:27:43;;;;;;;0.10;0.10;;;;;;;13.49;71.83;101107.94;5075646;28;20019;-84
2021/12/30 00:30:12;;;;;;;0.10;0.10;;;;;;;13.57;71.63;101125.44;5075499;28;20107;-85
2021/12/30 00:32:39;;;;;;;0.10;0.10;;;;;;;13.56;71.96;101101.53;5068335;28;20029;-84
2021/12/30 00:35:06;;;;;;;0.25;0.25;;;;;;;13.57;72.37;101100.56;5067651;28;20029;-85
2021/12/30 00:37:33;;;;;;;0.20;0.20;;;;;;;13.62;72.41;101103.13;5075794;28;20035;-83
2021/12/30 00:39:59;;;;;;;0.17;0.17;;;;;;;13.63;72.29;101094.22;5075269;28;20127;-80
2021/12/30 00:42:25;;;;;;;0.10;0.10;;;;;;;13.75;72.41;101101.84;5071447;28;20420;-84
2021/12/30 00:44:51;;;;;;;0.10;0.10;;;;;;;13.78;72.28;101109.75;5077631;28;20422;-84
2021/12/30 00:47:19;;;;;;;1.80;1.75;;;;;;;13.74;72.68;101110.75;5076101;28;20036;-83
2021/12/30 00:49:46;;;;;;;0.50;0.50;;;;;;;13.85;72.39;101115.78;5076752;28;20035;-82
2021/12/30 00:52:13;;;;;;;1.10;1.10;;;;;;;13.87;72.38;101119.28;5073497;28;20529;-85
2021/12/30 00:54:39;;;;;;;0.20;0.20;;;;;;;13.91;72.42;101121.78;5068184;28;20036;-81
2021/12/30 00:57:06;;;;;;;0.80;0.80;;;;;;;13.88;72.50;101111.25;5074865;28;20108;-83
2021/12/30 00:59:32;;;;;;;0.10;0.10;;;;;;;14.05;72.14;101107.19;5071268;28;20041;-85
2021/12/30 01:01:58;;;;;;;0.10;0.10;;;;;;;13.96;72.46;101108.34;5068951;28;20491;-83
2021/12/30 01:04:24;;;;;;;0.85;0.85;;;;;;;14.07;72.58;101110.69;5072213;28;20399;-79
2021/12/30 01:06:52;;;;;;;0.30;0.30;;;;;;;14.19;72.34;101110.31;5071995;28;20537;-84
2021/12/30 01:09:18;;;;;;;0.20;0.20;;;;;;;14.16;72.51;101117.53;5074470;28;20387;-80
2021/12/30 01:11:45;;;;;;;0.20;0.20;;;;;;;14.27;72.07;101104.75;5074690;28;20039;-85
2021/12/30 01:14:21;;;;;;;0.10;0.10;;;;;;;14.24;72.26;101102.16;5072385;28;20020;-78
2021/12/30 01:16:52;;;;;;;0.10;0.10;;;;;;;14.27;72.40;101104.75;5071748;28;20036;-84
2021/12/30 01:19:42;;;;;;;0.10;0.10;;;;;;;14.33;72.34;101106.31;5072214;28;20025;-84
2021/12/30 01:22:05;;;;;;;2.38;2.25;;;;;;;14.32;72.44;101115.25;5070885;28;20049;-82
2021/12/30 01:24:31;;;;;;;0.20;0.20;;;;;;;14.19;72.87;101118.31;5071758;28;20040;-84
2021/12/30 01:26:57;;;;;;;0.10;0.10;;;;;;;14.23;72.91;101105.75;5068957;28;20025;-84
2021/12/30 01:29:26;;;;;;;0.10;0.10;;;;;;;14.33;72.42;101101.88;5070346;28;20039;-82
2021/12/30 01:31:52;;;;;;;5.68;1.40;;;;;;;14.42;72.34;101100.72;5068412;28;20853;-84
2021/12/30 01:34:19;;;;;;;0.17;0.17;;;;;;;14.44;72.45;101114.00;5068628;28;20083;-84
2021/12/30 01:36:45;;;;;;;0.22;0.22;;;;;;;14.50;72.08;101128.00;5070567;28;20048;-83
2021/12/30 01:39:12;;;;;;;0.40;0.40;;;;;;;14.47;72.11;101130.75;5065125;28;20119;-84
2021/12/30 01:41:40;;;;;;;0.30;0.30;;;;;;;14.49;72.34;101131.59;5067928;28;20031;-84
2021/12/30 01:44:06;;;;;;;0.10;0.10;;;;;;;14.56;71.98;101150.94;5064239;28;20040;-82
2021/12/30 01:46:42;;;;;;;0.73;0.73;;;;;;;14.62;72.04;101155.22;5072112;28;20047;-85
2021/12/30 01:49:09;;;;;;;0.68;0.68;;;;;;;14.61;72.07;101156.13;5070611;28;20030;-84
2021/12/30 01:51:36;;;;;;;0.10;0.10;;;;;;;14.67;71.67;101147.97;5062973;28;20033;-85
2021/12/30 01:54:02;;;;;;;0.10;0.10;;;;;;;14.74;71.63;101159.28;5068342;28;20554;-84
2021/12/30 01:56:32;;;;;;;0.15;0.15;;;;;;;14.73;71.85;101158.44;5064511;28;20045;-84
2021/12/30 01:58:59;;;;;;;0.63;0.63;;;;;;;14.70;71.83;101158.50;5063488;28;20032;-83
2021/12/30 02:01:26;;;;;;;0.10;0.10;;;;;;;14.77;71.85;101151.22;5070124;28;20036;-85
2021/12/30 02:03:52;;;;;;;0.20;0.20;;;;;;;14.71;71.87;101161.13;5065599;28;20031;-83
2021/12/30 02:06:19;;;;;;;3.75;1.25;;;;;;;14.79;71.69;101157.34;5063187;28;20150;-85
2021/12/30 02:08:46;;;;;;;0.68;0.68;;;;;;;14.78;71.77;101143.16;5069989;28;20166;-85
2021/12/30 02:11:12;;;;;;;0.65;0.65;;;;;;;14.77;71.83;101149.41;5069532;28;20538;-85
2021/12/30 02:13:39;;;;;;;7.13;1.40;;;;;;;14.76;71.89;101147.66;5070930;28;20040;-80
2021/12/30 02:16:05;;;;;;;0.20;0.20;;;;;;;14.78;71.84;101148.47;5070535;28;20081;-84
2021/12/30 02:18:32;;;;;;;0.30;0.30;;;;;;;14.80;72.01;101148.44;5071899;28;20040;-84
2021/12/30 02:21:01;;;;;;;0.10;0.10;;;;;;;14.81;71.99;101148.38;5066799;28;20032;-82
2021/12/30 02:23:32;;;;;;;0.15;0.15;;;;;;;14.85;71.92;101158.03;5066896;28;20120;-83
2021/12/30 02:26:00;;;;;;;1.95;1.23;;;;;;;14.87;71.89;101161.50;5068522;28;20376;-84
2021/12/30 02:28:30;;;;;;;0.77;0.65;;;;;;;14.80;72.17;101164.44;5065723;28;20649;-84
2021/12/30 02:31:00;;;;;;;1.35;1.25;;;;;;;14.92;71.83;101160.50;5074811;28;20041;-85
2021/12/30 02:33:27;;;;;;;0.43;0.43;;;;;;;14.82;72.28;101165.25;5070765;28;20131;-79
2021/12/30 02:35:56;;;;;;;0.85;0.85;;;;;;;14.88;72.20;101157.91;5070691;28;20045;-80
2021/12/30 02:38:24;;;;;;;0.10;0.10;;;;;;;14.92;71.87;101164.03;5071744;28;20048;-83
2021/12/30 02:40:54;;;;;;;0.90;0.65;;;;;;;14.86;72.17;101164.22;5062133;28;20486;-76
2021/12/30 02:43:25;;;;;;;0.10;0.10;;;;;;;14.92;72.04;101160.50;5066607;28;20060;-77
2021/12/30 02:45:52;;;;;;;0.20;0.20;;;;;;;14.86;72.28;101165.09;5066976;28;20453;-82
2021/12/30 02:48:21;;;;;;;0.10;0.10;;;;;;;14.90;72.37;101165.00;5067456;28;20021;-79
2021/12/30 02:50:49;;;;;;;0.80;0.80;;;;;;;14.89;72.23;101172.13;5069192;28;20381;-84
2021/12/30 02:53:16;;;;;;;0.10;0.10;;;;;;;14.97;71.97;101177.22;5066631;28;20387;-76
2021/12/30 02:55:45;;;;;;;0.40;0.40;;;;;;;14.85;72.41;101179.38;5067755;28;20028;-77
2021/12/30 02:58:12;;;;;;;0.50;0.50;;;;;;;14.85;72.35;101179.38;5066660;28;20016;-84
2021/12/30 03:00:40;;;;;;;0.10;0.10;;;;;;;14.84;72.72;101172.28;5065969;28;20059;-83
2021/12/30 03:03:06;;;;;;;0.10;0.10;;;;;;;14.84;72.89;101172.28;5070903;28;20113;-77
2021/12/30 03:05:34;;;;;;;0.20;0.20;;;;;;;14.81;72.92;101183.03;5067593;28;20024;-82
2021/12/30 03:08:00;;;;;;;0.45;0.45;;;;;;;14.92;72.53;101181.84;5068516;28;20131;-82
2021/12/30 03:10:28;;;;;;;0.30;0.30;;;;;;;14.80;73.17;101189.28;5072241;28;20500;-79
2021/12/30 03:12:58;;;;;;;0.77;0.77;;;;;;;14.94;72.89;101183.53;5068363;28;20032;-81
2021/12/30 03:15:27;;;;;;;0.10;0.10;;;;;;;15.00;72.19;101171.78;5062775;28;20029;-83
2021/12/30 03:17:54;;;;;;;4.07;0.63;;;;;;;14.97;72.44;101177.22;5059786;28;20035;-83
2021/12/30 03:20:20;;;;;;;0.10;0.10;;;;;;;14.97;72.30;101177.22;5070652;28;20060;-83
2021/12/30 03:22:47;;;;;;;0.10;0.10;;;;;;;14.94;72.98;101166.63;5074045;28;20041;-83
2021/12/30 03:25:15;;;;;;;0.10;0.10;;;;;;;14.97;72.79;101171.88;5070779;28;20035;-82
2021/12/30 03:27:42;;;;;;;1.75;0.70;;;;;;;15.12;72.35;101168.69;5072499;28;20081;-81
2021/12/30 03:30:13;;;;;;;0.10;0.10;;;;;;;15.02;72.46;101170.78;5073584;28;20039;-80
2021/12/30 03:32:40;;;;;;;3.00;0.57;;;;;;;14.94;72.98;101171.97;5065685;28;20072;-79
2021/12/30 03:35:08;;;;;;;0.17;0.17;;;;;;;14.98;72.61;101169.16;5058158;28;20079;-82
2021/12/30 03:37:34;;;;;;;0.30;0.30;;;;;;;14.98;72.66;101163.81;5055309;28;20072;-83
2021/12/30 03:40:01;;;;;;;0.10;0.10;;;;;;;14.87;73.24;101165.97;5070818;28;20495;-84
2021/12/30 03:42:28;;;;;;;0.35;0.35;;;;;;;14.94;72.82;101182.66;5076049;28;20040;-83
2021/12/30 03:44:57;;;;;;;1.38;0.65;;;;;;;14.92;73.13;101171.19;5062835;28;20357;-81
2021/12/30 03:47:23;;;;;;;0.10;0.10;;;;;;;14.87;73.21;101172.19;5063351;28;20399;-83
2021/12/30 03:49:49;;;;;;;0.20;0.20;;;;;;;14.83;73.47;101178.53;5068572;28;20031;-84
2021/12/30 03:52:24;;;;;;;0.10;0.10;;;;;;;14.74;73.69;101184.16;5076677;28;20479;-83
2021/12/30 03:54:50;;;;;;;0.40;0.40;;;;;;;14.86;73.41;101186.44;5079921;28;20537;-79
2021/12/30 03:57:16;;;;;;;1.38;0.52;;;;;;;14.89;73.34;101196.13;5079179;28;20037;-82
2021/12/30 03:59:42;;;;;;;0.10;0.10;;;;;;;14.83;73.58;101228.38;5082576;28;20305;-80
2021/12/30 04:02:09;;;;;;;0.20;0.20;;;;;;;14.87;73.00;101206.84;5075242;28;20432;-82
2021/12/30 04:04:42;;;;;;;0.10;0.10;;;;;;;14.81;73.58;101204.38;5063982;28;20056;-83
2021/12/30 04:07:15;;;;;;;0.30;0.30;;;;;;;14.90;73.16;101187.22;5074331;28;20028;-81
2021/12/30 04:09:50;;;;;;;1.40;1.35;;;;;;;14.97;73.00;101193.25;5074499;28;20032;-83
2021/12/30 04:12:18;;;;;;;0.10;0.10;;;;;;;14.88;73.23;101205.94;5072234;28;20025;-82
2021/12/30 04:14:44;;;;;;;0.10;0.10;;;;;;;14.80;73.60;101220.44;5077720;28;20501;-78
2021/12/30 04:17:10;;;;;;;0.10;0.10;;;;;;;14.96;73.05;101180.81;5076188;28;20531;-80
2021/12/30 04:19:36;;;;;;;0.40;0.40;;;;;;;14.70;74.18;101177.19;5060904;28;20078;-83
2021/12/30 04:22:02;;;;;;;1.13;0.32;;;;;;;14.85;73.33;101187.38;5069166;28;20043;-81
2021/12/30 04:24:29;;;;;;;0.20;0.20;;;;;;;14.88;73.13;101189.94;5073746;28;20036;-81
2021/12/30 04:26:55;;;;;;;0.10;0.10;;;;;;;14.79;73.41;101194.69;5078081;28;20033;-81
2021/12/30 04:29:22;;;;;;;0.10;0.10;;;;;;;14.82;73.46;101200.81;5076559;28;20032;-81
2021/12/30 04:31:48;;;;;;;0.20;0.20;;;;;;;14.78;73.61;101199.16;5074764;28;20491;-80
2021/12/30 04:34:15;;;;;;;4.15;0.70;;;;;;;14.83;73.27;101191.88;5070956;28;20415;-81
2021/12/30 04:36:41;;;;;;;0.10;0.10;;;;;;;14.81;73.43;101188.38;5065541;28;20111;-80
2021/12/30 04:39:08;;;;;;;1.10;0.95;;;;;;;14.82;73.10;101205.28;5071269;28;20032;-82
2021/12/30 04:41:35;;;;;;;0.10;0.10;;;;;;;14.81;73.28;101215.06;5071269;28;20048;-81
2021/12/30 04:44:01;;;;;;;0.40;0.40;;;;;;;14.77;73.62;101204.56;5064204;28;20032;-82
2021/12/30 04:46:27;;;;;;;0.20;0.20;;;;;;;14.90;72.77;101197.03;5067501;28;20029;-82
2021/12/30 04:48:54;;;;;;;1.60;0.75;;;;;;;14.86;73.21;101197.09;5075906;28;20111;-81
2021/12/30 04:51:20;;;;;;;0.52;0.52;;;;;;;14.65;74.14;101204.00;5068604;28;20092;-79
2021/12/30 04:53:47;;;;;;;0.20;0.20;;;;;;;14.91;73.05;101204.09;5070640;28;20036;-82
2021/12/30 04:56:14;;;;;;;0.25;0.25;;;;;;;14.82;73.25;101200.81;5071467;28;20029;-82
2021/12/30 04:58:40;;;;;;;0.10;0.10;;;;;;;14.88;72.93;101205.94;5072003;28;20411;-82
2021/12/30 05:01:06;;;;;;;0.17;0.17;;;;;;;14.83;73.29;101199.03;5074406;28;20040;-81
2021/12/30 05:03:32;;;;;;;0.10;0.10;;;;;;;14.78;73.44;101198.28;5068337;28;20041;-82
2021/12/30 05:05:58;;;;;;;0.25;0.25;;;;;;;14.78;73.42;101207.16;5069992;28;20020;-80
2021/12/30 05:08:26;;;;;;;0.10;0.10;;;;;;;14.68;73.58;101211.06;5067238;28;20024;-78
2021/12/30 05:10:52;;;;;;;0.28;0.28;;;;;;;14.56;74.37;101207.78;5074401;28;20037;-81
2021/12/30 05:13:19;;;;;;;0.10;0.10;;;;;;;14.80;73.53;101210.63;5073852;28;20082;-80
2021/12/30 05:15:47;;;;;;;0.20;0.20;;;;;;;14.81;73.32;101198.19;5074789;28;20085;-82
2021/12/30 05:18:15;;;;;;;4.95;1.17;;;;;;;14.72;73.58;101191.34;5066223;28;20077;-82
2021/12/30 05:20:42;;;;;;;0.10;0.10;;;;;;;14.85;73.33;101211.38;5072758;28;20024;-81
2021/12/30 05:23:10;;;;;;;0.20;0.20;;;;;;;14.88;73.34;101205.94;5073764;28;20415;-81
2021/12/30 05:25:36;;;;;;;0.17;0.17;;;;;;;14.90;72.90;101186.34;5064736;28;20105;-81
2021/12/30 05:28:03;;;;;;;0.20;0.20;;;;;;;14.92;72.91;101198.72;5066349;28;20032;-82
2021/12/30 05:30:29;;;;;;;0.10;0.10;;;;;;;14.91;73.20;101204.97;5060288;28;20064;-81
2021/12/30 05:32:57;;;;;;;0.20;0.20;;;;;;;14.99;73.02;101202.94;5071926;28;20033;-83
2021/12/30 05:35:24;;;;;;;0.10;0.10;;;;;;;15.04;72.75;101200.09;5072493;28;20480;-81
2021/12/30 05:37:50;;;;;;;0.10;0.10;;;;;;;15.04;72.91;101200.09;5089449;28;20093;-83
2021/12/30 05:40:19;;;;;;;0.10;0.10;;;;;;;15.16;72.71;101193.50;5071411;28;20024;-84
2021/12/30 05:42:46;;;;;;;0.45;0.45;;;;;;;15.03;73.29;101198.38;5067071;28;20136;-83
2021/12/30 05:45:14;;;;;;;2.45;1.27;;;;;;;15.07;73.49;101184.00;5075390;28;20068;-82
2021/12/30 05:47:42;;;;;;;0.22;0.22;;;;;;;15.23;73.00;101199.47;5079708;28;20472;-81
2021/12/30 05:50:09;;;;;;;0.35;0.35;;;;;;;15.11;73.08;101196.31;5070995;28;20033;-82
2021/12/30 05:52:36;;;;;;;0.15;0.15;;;;;;;15.17;73.08;101197.91;5072004;28;20063;-81
2021/12/30 05:55:04;;;;;;;0.13;0.13;;;;;;;15.30;72.42;101190.34;5064110;28;20029;-82
2021/12/30 05:57:31;;;;;;;0.10;0.10;;;;;;;15.15;72.81;101213.09;5068079;28;20025;-82
2021/12/30 05:59:57;;;;;;;0.10;0.10;;;;;;;15.14;72.76;101217.56;5066450;28;20024;-83
2021/12/30 06:02:24;;;;;;;0.63;0.63;;;;;;;15.09;73.25;101214.19;5074789;28;20119;-80
2021/12/30 06:04:51;;;;;;;0.10;0.10;;;;;;;15.16;72.77;101225.50;5079772;28;20033;-83
2021/12/30 06:07:17;;;;;;;0.10;0.10;;;;;;;15.13;72.47;101242.50;5066824;28;20020;-82
2021/12/30 06:09:44;;;;;;;0.10;0.10;;;;;;;15.14;73.02;101220.22;5067514;28;20040;-84
2021/12/30 06:12:10;;;;;;;0.10;0.10;;;;;;;15.10;72.79;101231.91;5066410;28;20109;-82
2021/12/30 06:14:36;;;;;;;0.10;0.10;;;;;;;15.10;72.92;101263.94;5057987;28;20033;-81
2021/12/30 06:17:03;;;;;;;0.10;0.10;;;;;;;15.22;72.59;101236.00;5060194;28;20029;-82
2021/12/30 06:19:30;;;;;;;0.10;0.10;;;;;;;15.17;72.54;101244.13;5070146;28;20052;-77
2021/12/30 06:21:56;;;;;;;0.10;0.10;;;;;;;15.20;72.61;101230.72;5064002;28;20139;-83
2021/12/30 06:24:22;;;;;;;0.10;0.10;;;;;;;15.09;72.73;101242.66;5058518;28;20111;-80
2021/12/30 06:26:48;;;;;;;0.10;0.10;;;;;;;15.15;72.59;101230.00;5057461;28;20534;-84
2021/12/30 06:29:14;;;;;;;0.10;0.10;;;;;;;15.07;72.68;101239.19;5061605;28;20404;-83
2021/12/30 06:31:42;;;;;;;0.10;0.10;;;;;;;15.05;72.64;101255.22;5068551;28;20391;-83
2021/12/30 06:34:08;;;;;;;0.15;0.15;;;;;;;15.09;72.82;101248.88;5063826;28;20032;-81
2021/12/30 06:36:35;;;;;;;0.10;0.10;;;;;;;14.93;73.13;101252.94;5057797;28;20033;-83
2021/12/30 06:39:05;;;;;;;0.20;0.20;;;;;;;15.07;72.48;101264.06;5059795;28;20028;-78
2021/12/30 06:41:35;;;;;;;0.20;0.20;;;;;;;15.03;72.64;101265.09;5065141;28;20399;-83
2021/12/30 06:44:02;;;;;;;0.10;0.10;;;;;;;15.17;72.28;101244.13;5064632;28;20144;-82
2021/12/30 06:46:29;;;;;;;0.20;0.20;;;;;;;15.06;72.46;101248.09;5066568;28;20078;-80
2021/12/30 06:48:55;;;;;;;0.10;0.10;;;;;;;15.08;72.52;101263.13;5067716;28;20043;-82
2021/12/30 06:51:23;;;;;;;0.10;0.10;;;;;;;15.18;71.95;101266.38;5066047;28;20389;-77
2021/12/30 06:53:54;;;;;;;0.10;0.10;;;;;;;15.10;72.41;101276.41;5060693;28;20036;-80
2021/12/30 06:56:21;;;;;;;0.20;0.20;;;;;;;15.25;71.46;101275.06;5062638;28;20028;-79
2021/12/30 06:58:47;;;;;;;0.10;0.10;;;;;;;15.18;71.76;101283.25;5066223;28;20400;-83
2021/12/30 07:01:14;;;;;;;0.10;0.10;;;;;;;15.05;72.43;101281.91;5062926;28;20033;-77
2021/12/30 07:03:41;;;;;;;0.10;0.10;;;;;;;14.93;72.58;101287.63;5066243;28;20474;-78
2021/12/30 07:06:08;;;;;;;0.10;0.10;;;;;;;14.85;72.71;101280.75;5069289;28;20032;-81
2021/12/30 07:08:34;;;;;;;0.10;0.10;;;;;;;14.97;72.27;101275.94;5064708;28;20025;-81
2021/12/30 07:11:00;;;;;;;0.10;0.10;;;;;;;15.04;72.24;101290.81;5065186;28;20036;-84
2021/12/30 07:13:26;;;;;;;0.10;0.10;;;;;;;15.08;71.80;101288.94;5063651;28;20029;-83
2021/12/30 07:15:53;;;;;;;0.10;0.10;;;;;;;14.94;72.04;101310.72;5073762;28;20033;-83
2021/12/30 07:18:19;;;;;;;0.10;0.10;;;;;;;15.08;72.02;101279.16;5073891;28;20119;-81
2021/12/30 07:20:45;;;;;;;0.73;0.73;;;;;;;14.95;72.52;101296.47;5073868;28;20071;-83
2021/12/30 07:23:11;;;;;;;0.10;0.10;;;;;;;15.00;72.10;101289.19;5073903;28;20057;-83
2021/12/30 07:25:37;;;;;;;0.10;0.10;;;;;;;15.06;71.80;101282.78;5077280;28;20495;-82
2021/12/30 07:28:04;;;;;;;2.85;1.65;;;;;;;14.99;72.15;101300.78;5076646;28;20059;-84
2021/12/30 07:30:31;;;;;;;0.32;0.30;;;;;;;14.92;72.43;101293.91;5068029;28;20029;-85
2021/12/30 07:32:57;;;;;;;0.10;0.10;;;;;;;15.07;71.62;101312.09;5058133;28;20033;-81
2021/12/30 07:35:23;;;;;;;0.10;0.10;;;;;;;15.00;72.10;101310.53;5060454;28;20033;-86
2021/12/30 07:37:51;;;;;;;0.32;0.32;;;;;;;14.97;72.27;101327.50;5067912;28;20074;-82
2021/12/30 07:40:19;;;;;;;0.20;0.20;;;;;;;14.99;72.09;101319.44;5062887;28;20488;-82
2021/12/30 07:42:46;;;;;;;0.15;0.15;;;;;;;15.06;72.00;101330.81;5058647;28;20047;-83
2021/12/30 07:45:12;;;;;;;2.00;1.25;;;;;;;14.88;72.30;101344.66;5055295;28;20388;-81
2021/12/30 07:47:40;;;;;;;0.10;0.10;;;;;;;14.98;72.14;101344.41;5056408;28;20033;-82
2021/12/30 07:50:07;;;;;;;0.15;0.15;;;;;;;14.95;72.03;101358.69;5067112;28;20033;-83
2021/12/30 07:52:34;;;;;;;0.10;0.10;;;;;;;14.85;72.69;101336.78;5055863;28;20036;-80
2021/12/30 07:55:01;;;;;;;0.10;0.10;;;;;;;15.03;72.08;101359.34;5072842;28;20131;-81
2021/12/30 07:57:29;;;;;;;1.85;1.75;;;;;;;14.99;71.90;101351.47;5075707;28;20440;-82
2021/12/30 07:59:56;;;;;;;0.32;0.32;;;;;;;15.03;71.74;101337.13;5075994;28;20033;-82
2021/12/30 08:02:22;;;;;;;0.08;0.08;;;;;;;14.97;71.92;101334.66;5056427;28;20120;-86
2021/12/30 08:04:48;;;;;;;1.20;1.20;;;;;;;15.05;71.56;101345.94;5056223;28;20068;-84
2021/12/30 08:07:20;;;;;;;0.10;0.10;;;;;;;15.10;71.51;101351.16;5060176;28;20448;-79
2021/12/30 08:09:46;;;;;;;0.17;0.17;;;;;;;15.04;71.55;101349.53;5069076;28;20049;-85
2021/12/30 08:12:12;;;;;;;0.35;0.32;;;;;;;15.10;71.30;101348.47;5075822;28;20028;-84
2021/12/30 08:14:39;;;;;;;0.10;0.10;;;;;;;14.93;71.65;101331.19;5062162;28;20085;-82
2021/12/30 08:17:05;;;;;;;0.22;0.22;;;;;;;14.96;71.61;101362.25;5062043;28;20029;-83
2021/12/30 08:19:31;;;;;;;0.10;0.10;;;;;;;15.03;71.48;101337.13;5063438;28;20055;-82
2021/12/30 08:21:57;;;;;;;0.32;0.32;;;;;;;14.96;71.58;101352.44;5056875;28;20121;-83
2021/12/30 08:24:23;;;;;;;0.40;0.40;;;;;;;14.79;72.07;101392.97;5056201;28;20163;-82
2021/12/30 08:26:49;;;;;;;1.98;1.42;;;;;;;15.06;71.23;101355.69;5062654;28;20028;-79
2021/12/30 08:29:15;;;;;;;0.20;0.20;;;;;;;15.08;70.89;101345.88;5065566;28;20035;-82
2021/12/30 08:31:42;;;;;;;0.20;0.20;;;;;;;15.18;70.50;101357.13;5056593;28;20116;-82
2021/12/30 08:34:08;;;;;;;0.32;0.32;;;;;;;15.12;70.71;101374.19;5057888;28;20082;-83
2021/12/30 08:36:34;;;;;;;0.10;0.10;;;;;;;15.17;70.62;101364.25;5060553;28;20039;-83
2021/12/30 08:39:00;;;;;;;2.63;1.17;;;;;;;15.33;69.77;101363.78;5063176;28;20051;-81
2021/12/30 08:41:27;;;;;;;0.10;0.10;;;;;;;15.25;70.40;101379.16;5059048;28;20028;-81
2021/12/30 08:43:53;;;;;;;0.10;0.10;;;;;;;15.25;70.61;101384.50;5058756;28;20082;-82
2021/12/30 08:46:19;;;;;;;0.20;0.20;;;;;;;15.30;70.51;101387.91;5061836;28;20056;-81
2021/12/30 08:48:45;;;;;;;1.08;1.00;;;;;;;15.30;70.18;101385.22;5061930;28;20032;-77
2021/12/30 08:51:11;;;;;;;0.43;0.43;;;;;;;15.34;70.13;101402.91;5063470;28;20104;-81
2021/12/30 08:53:40;;;;;;;0.20;0.20;;;;;;;15.35;70.32;101377.94;5069814;28;20033;-82
2021/12/30 08:56:08;;;;;;;1.48;1.38;;;;;;;15.31;70.06;101381.63;5074962;28;20108;-81
2021/12/30 08:58:35;;;;;;;0.10;0.10;;;;;;;15.26;70.21;101396.94;5074910;28;20116;-82
2021/12/30 09:01:02;;;;;;;0.10;0.10;;;;;;;15.48;69.45;101389.13;5069160;28;20367;-83
2021/12/30 09:03:28;;;;;;;3.20;0.68;;;;;;;15.33;69.89;101377.13;5073763;28;20036;-83
2021/12/30 09:05:54;;;;;;;0.10;0.10;;;;;;;15.39;69.63;101395.63;5069631;28;20024;-82
2021/12/30 09:08:20;;;;;;;0.10;0.10;;;;;;;15.46;69.74;101383.81;5064839;28;20024;-81
2021/12/30 09:10:49;;;;;;;0.10;0.10;;;;;;;15.52;69.78;101383.63;5057766;28;20033;-81
2021/12/30 09:13:18;;;;;;;0.10;0.10;;;;;;;15.55;69.37;101384.47;5062416;28;20020;-83
2021/12/30 09:15:46;;;;;;;0.10;0.10;;;;;;;15.69;68.98;101384.91;5061548;28;20029;-82
2021/12/30 09:18:13;;;;;;;2.90;1.95;;;;;;;15.60;69.30;101387.84;5064500;28;20052;-84
2021/12/30 09:20:42;;;;;;;0.10;0.10;;;;;;;15.45;69.54;101398.13;5062459;28;20104;-83
2021/12/30 09:23:11;;;;;;;0.10;0.10;;;;;;;15.58;69.39;101390.56;5060940;28;20047;-83
2021/12/30 09:25:39;;;;;;;0.20;0.20;;;;;;;15.62;69.22;101396.69;5064731;28;20033;-83
2021/12/30 09:28:07;;;;;;;2.65;1.35;;;;;;;15.69;68.78;101400.94;5055224;28;20040;-83
2021/12/30 09:30:34;;;;;;;1.92;1.17;;;;;;;15.79;68.85;101405.03;5055755;28;20033;-84
2021/12/30 09:33:02;;;;;;;0.20;0.20;;;;;;;15.73;68.49;101434.63;5053919;28;20112;-83
2021/12/30 09:35:29;;;;;;;0.38;0.38;;;;;;;15.87;68.14;101407.47;5061448;28;20036;-83
2021/12/30 09:37:56;;;;;;;1.20;1.10;;;;;;;15.87;68.32;101431.53;5055068;28;20029;-83
2021/12/30 09:40:23;;;;;;;0.63;0.63;;;;;;;15.96;68.04;101408.97;5053879;28;20615;-82
2021/12/30 09:42:54;;;;;;;2.58;1.90;;;;;;;15.95;67.72;101425.91;5054939;28;20396;-83
2021/12/30 09:45:20;;;;;;;2.70;2.08;;;;;;;15.80;68.25;101425.50;5064186;28;20040;-82
2021/12/30 09:47:51;;;;;;;0.10;0.10;;;;;;;15.90;68.00;101426.09;5055616;28;20044;-83
2021/12/30 09:50:21;;;;;;;0.50;0.50;;;;;;;15.77;68.49;101436.25;5072632;28;20017;-77
2021/12/30 09:52:47;;;;;;;0.50;0.50;;;;;;;15.74;68.73;101472.88;5056492;28;20024;-76
2021/12/30 09:55:14;;;;;;;1.25;0.82;;;;;;;15.66;68.72;101436.63;5053980;28;20032;-80
2021/12/30 09:57:41;;;;;;;0.20;0.20;;;;;;;15.61;68.85;101456.38;5065048;28;20119;-78
2021/12/30 10:00:11;;;;;;;0.10;0.10;;;;;;;15.62;68.93;101455.47;5061409;28;20057;-79
2021/12/30 10:02:39;;;;;;;0.20;0.20;;;;;;;15.66;68.45;101454.44;5053677;28;20468;-79
2021/12/30 10:05:10;;;;;;;0.20;0.20;;;;;;;15.60;68.87;101436.81;5070121;28;20542;-76
2021/12/30 10:07:41;;;;;;;1.13;1.05;;;;;;;15.64;68.76;101461.63;5061162;28;20025;-78
2021/12/30 10:10:29;;;;;;;0.90;0.90;;;;;;;15.79;68.27;101455.78;5055821;28;20053;-77
2021/12/30 10:12:56;;;;;;;0.63;0.63;;;;;;;15.64;69.00;101445.63;5059204;28;20491;-76
2021/12/30 10:15:26;;;;;;;0.10;0.10;;;;;;;15.65;68.59;101439.31;5054535;28;20032;-80
2021/12/30 10:17:58;;;;;;;0.57;0.57;;;;;;;15.66;68.88;101435.72;5058980;28;20083;-79
2021/12/30 10:20:30;;;;;;;0.10;0.10;;;;;;;15.80;68.39;101444.19;5061939;28;20048;-83
2021/12/30 10:23:08;;;;;;;0.22;0.22;;;;;;;15.62;68.86;101458.13;5056133;28;20036;-81
2021/12/30 10:25:38;;;;;;;0.10;0.10;;;;;;;15.75;68.64;101437.22;5057052;28;20056;-77
2021/12/30 10:28:26;;;;;;;0.10;0.10;;;;;;;15.61;69.12;101461.72;5059662;28;20123;-75
2021/12/30 10:30:59;;;;;;;0.10;0.10;;;;;;;15.69;68.53;101454.34;5061865;28;20465;-74
2021/12/30 10:33:28;;;;;;;0.47;0.40;;;;;;;15.61;68.64;101427.00;5055776;28;20067;-77
2021/12/30 10:35:55;;;;;;;0.10;0.10;;;;;;;15.61;68.93;101445.69;5054070;28;20039;-76
2021/12/30 10:38:22;;;;;;;0.10;0.10;;;;;;;15.45;69.61;101451.53;5065159;28;20102;-77
2021/12/30 10:40:58;;;;;;;0.10;0.10;;;;;;;15.58;69.14;101440.47;5057568;28;20036;-76
2021/12/30 10:49:00;;;;;;;1.00;1.00;;;;;;;15.73;68.37;101449.78;5072159;27;20411;-79
2021/12/30 10:57:10;;;;;;;0.10;0.10;;;;;;;15.58;68.82;101451.16;5057079;28;20413;-87
2021/12/30 10:59:39;;;;;;;0.13;0.13;;;;;;;15.51;69.23;101445.09;5037607;28;20067;-83
2021/12/30 11:02:12;;;;;;;0.10;0.10;;;;;;;15.59;68.65;101459.09;5033241;28;20037;-83
2021/12/30 11:07:27;;;;;;;0.40;0.40;;;;;;;15.43;69.48;101474.72;5062030;27;20426;-82
2021/12/30 11:12:31;;;;;;;0.10;0.10;;;;;;;15.53;68.92;101481.53;5095332;27;1233076;-83
2021/12/30 11:15:00;;;;;;;0.47;0.47;;;;;;;15.56;69.01;101474.34;5129687;27;20081;-83
2021/12/30 11:17:33;;;;;;;0.10;0.10;;;;;;;15.45;69.46;101486.25;5118679;27;20027;-83
2021/12/30 11:20:04;;;;;;;0.10;0.10;;;;;;;15.57;68.77;101460.06;5110904;28;20027;-83
2021/12/30 11:22:35;;;;;;;0.10;0.10;;;;;;;15.61;68.78;101464.38;5109267;28;20058;-85
2021/12/30 11:25:05;;;;;;;0.30;0.30;;;;;;;15.53;69.30;101478.00;5110432;28;20036;-83
2021/12/30 11:27:33;;;;;;;1.13;0.85;;;;;;;15.59;68.99;101476.91;5109405;28;20415;-82
2021/12/30 11:30:03;;;;;;;0.10;0.10;;;;;;;15.55;69.09;101484.13;5111274;28;20076;-81
2021/12/30 11:32:32;;;;;;;0.10;0.10;;;;;;;15.53;68.91;101483.31;5108685;28;20028;-84
2021/12/30 11:35:02;;;;;;;0.40;0.40;;;;;;;15.60;68.71;101484.00;5110874;28;20108;-82
2021/12/30 11:37:30;;;;;;;0.73;0.52;;;;;;;15.58;68.88;101494.75;5110450;28;20026;-82
2021/12/30 11:40:06;;;;;;;0.10;0.10;;;;;;;15.57;68.68;101503.66;5108804;28;20051;-83
2021/12/30 11:42:46;;;;;;;0.95;0.90;;;;;;;15.68;68.30;101512.22;5109848;28;20027;-92